Time;durP1;ratioP1;P1;durP2;ratioP2;P2;SDS_P1;SDS_P2;PMS_P1;PMS_P2;Temp;Humidity;BMP_temperature;BMP_pressure;BME280_temperature;BME280_humidity;BME280_pressure;Samples;Min_cycle;Max_cycle;Signal;HPM_P1;HPM_P2
2023/07/21 00:01:48;;;;;;;11.57;4.43;;;;;;;;;;5079921;28;20049;-85
2023/07/21 00:04:17;;;;;;;9.80;4.60;;;;;;;;;;5078303;28;20072;-86
2023/07/21 00:06:45;;;;;;;6.18;3.63;;;;;;;;;;5080376;28;20075;-85
2023/07/21 00:09:15;;;;;;;7.25;4.40;;;;;;;;;;5080271;28;20410;-85
2023/07/21 00:11:48;;;;;;;6.93;3.97;;;;;;;;;;5080347;28;20327;-85
2023/07/21 00:14:16;;;;;;;9.38;4.10;;;;;;;;;;5080460;28;20068;-85
2023/07/21 00:16:43;;;;;;;12.20;5.00;;;;;;;;;;5080280;28;20075;-85
2023/07/21 00:19:10;;;;;;;10.07;5.32;;;;;;;;;;5079119;28;20056;-85
2023/07/21 00:21:44;;;;;;;10.90;4.75;;;;;;;;;;5079289;28;20118;-86
2023/07/21 00:24:11;;;;;;;7.13;4.70;;;;;;;;;;5080468;28;20108;-86
2023/07/21 00:26:41;;;;;;;5.15;3.58;;;;;;;;;;5081075;28;20075;-87
2023/07/21 00:29:08;;;;;;;7.30;4.18;;;;;;;;;;5080963;28;20215;-86
2023/07/21 00:31:35;;;;;;;9.27;4.75;;;;;;;;;;5088776;28;20049;-86
2023/07/21 00:34:08;;;;;;;7.30;4.70;;;;;;;;;;5087791;28;20051;-85
2023/07/21 00:36:35;;;;;;;10.65;5.30;;;;;;;;;;5088098;28;20053;-86
2023/07/21 00:39:03;;;;;;;11.25;5.40;;;;;;;;;;5083280;28;20086;-85
2023/07/21 00:41:32;;;;;;;8.35;4.72;;;;;;;;;;5082777;28;20092;-85
2023/07/21 00:44:01;;;;;;;7.90;5.20;;;;;;;;;;5066115;28;20082;-85
2023/07/21 00:46:27;;;;;;;10.85;5.00;;;;;;;;;;5068129;28;20139;-85
2023/07/21 00:48:55;;;;;;;11.70;5.95;;;;;;;;;;5067907;28;20415;-84
2023/07/21 00:51:24;;;;;;;10.48;6.65;;;;;;;;;;5084939;28;20052;-86
2023/07/21 00:53:55;;;;;;;10.45;6.13;;;;;;;;;;5066213;28;20121;-85
2023/07/21 00:56:22;;;;;;;10.98;5.93;;;;;;;;;;5083974;28;20331;-85
2023/07/21 00:58:49;;;;;;;9.15;6.03;;;;;;;;;;5066419;28;20056;-85
2023/07/21 01:01:16;;;;;;;9.43;5.20;;;;;;;;;;5066889;28;20063;-85
2023/07/21 01:03:43;;;;;;;8.25;5.22;;;;;;;;;;5067391;28;20048;-85
2023/07/21 01:06:11;;;;;;;7.80;5.10;;;;;;;;;;5064689;28;20162;-85
2023/07/21 01:08:37;;;;;;;11.48;5.50;;;;;;;;;;5082980;28;20135;-85
2023/07/21 01:11:10;;;;;;;9.05;5.50;;;;;;;;;;5066338;28;20052;-86
2023/07/21 01:13:40;;;;;;;12.18;5.93;;;;;;;;;;5066966;28;20075;-86
2023/07/21 01:16:10;;;;;;;9.05;5.60;;;;;;;;;;5066570;28;20040;-86
2023/07/21 01:18:42;;;;;;;8.23;5.90;;;;;;;;;;5066464;28;20044;-85
2023/07/21 01:21:14;;;;;;;7.18;4.78;;;;;;;;;;5083009;28;20232;-86
2023/07/21 01:23:44;;;;;;;7.68;5.53;;;;;;;;;;5066836;28;20147;-86
2023/07/21 01:26:12;;;;;;;10.07;6.20;;;;;;;;;;5068329;28;20072;-85
2023/07/21 01:28:57;;;;;;;8.57;6.00;;;;;;;;;;5084619;28;20048;-85
2023/07/21 01:31:27;;;;;;;11.07;5.93;;;;;;;;;;5085307;28;20101;-86
2023/07/21 01:33:55;;;;;;;9.80;5.90;;;;;;;;;;5066476;28;20056;-85
2023/07/21 01:36:22;;;;;;;10.05;5.35;;;;;;;;;;5067794;28;20037;-86
2023/07/21 01:38:50;;;;;;;11.82;7.03;;;;;;;;;;5066251;28;20060;-86
2023/07/21 01:41:17;;;;;;;13.50;7.57;;;;;;;;;;5069966;28;20063;-86
2023/07/21 01:43:46;;;;;;;10.80;7.03;;;;;;;;;;5081951;28;20143;-86
2023/07/21 01:46:15;;;;;;;14.18;7.53;;;;;;;;;;5081831;28;20063;-85
2023/07/21 01:48:45;;;;;;;17.63;8.55;;;;;;;;;;5083740;28;20064;-85
2023/07/21 01:51:12;;;;;;;16.13;8.30;;;;;;;;;;5088331;28;20118;-85
2023/07/21 01:53:46;;;;;;;12.93;7.85;;;;;;;;;;5084703;28;20045;-86
2023/07/21 01:56:22;;;;;;;17.02;8.07;;;;;;;;;;5084169;28;20060;-86
2023/07/21 01:58:51;;;;;;;14.68;7.90;;;;;;;;;;5085448;28;20350;-86
2023/07/21 02:01:19;;;;;;;12.18;7.78;;;;;;;;;;5085042;28;20088;-85
2023/07/21 02:03:47;;;;;;;16.08;8.50;;;;;;;;;;5083635;28;20048;-85
2023/07/21 02:06:14;;;;;;;12.90;7.80;;;;;;;;;;5084154;28;20084;-86
2023/07/21 02:08:41;;;;;;;16.33;8.48;;;;;;;;;;5081951;28;20428;-85
2023/07/21 02:11:11;;;;;;;16.17;9.05;;;;;;;;;;5081418;28;20056;-85
2023/07/21 02:13:39;;;;;;;14.27;7.75;;;;;;;;;;5082914;28;20049;-87
2023/07/21 02:16:06;;;;;;;22.42;10.88;;;;;;;;;;5083183;28;20048;-86
2023/07/21 02:18:33;;;;;;;19.40;10.98;;;;;;;;;;5081750;28;20055;-86
2023/07/21 02:21:02;;;;;;;19.20;10.65;;;;;;;;;;5080089;28;20061;-86
2023/07/21 02:23:29;;;;;;;24.08;11.52;;;;;;;;;;5081646;28;20112;-86
2023/07/21 02:25:59;;;;;;;31.50;14.88;;;;;;;;;;5083317;28;20221;-86
2023/07/21 02:28:26;;;;;;;31.70;15.55;;;;;;;;;;5086660;28;20404;-86
2023/07/21 02:30:58;;;;;;;25.58;13.65;;;;;;;;;;5086364;28;20104;-85
2023/07/21 02:33:25;;;;;;;24.65;13.65;;;;;;;;;;5081767;28;20049;-86
2023/07/21 02:35:52;;;;;;;23.27;11.45;;;;;;;;;;5082309;28;20349;-85
2023/07/21 02:38:18;;;;;;;24.88;11.80;;;;;;;;;;5082477;28;20087;-85
2023/07/21 02:40:45;;;;;;;32.75;12.93;;;;;;;;;;5082793;28;20053;-85
2023/07/21 02:43:16;;;;;;;24.77;12.88;;;;;;;;;;5065099;28;20255;-85
2023/07/21 02:45:51;;;;;;;24.67;13.27;;;;;;;;;;5064984;28;20102;-86
2023/07/21 02:48:22;;;;;;;23.83;12.32;;;;;;;;;;5081672;28;20052;-85
2023/07/21 02:50:50;;;;;;;31.42;12.38;;;;;;;;;;5085998;28;20044;-85
2023/07/21 02:53:17;;;;;;;24.80;12.18;;;;;;;;;;5071303;28;20063;-86
2023/07/21 02:55:44;;;;;;;24.50;12.43;;;;;;;;;;5072341;28;20056;-85
2023/07/21 02:58:14;;;;;;;20.10;11.02;;;;;;;;;;5072768;28;20052;-85
2023/07/21 03:00:41;;;;;;;17.77;11.13;;;;;;;;;;5091027;28;20060;-85
2023/07/21 03:03:09;;;;;;;17.23;10.60;;;;;;;;;;5083965;28;20087;-85
2023/07/21 03:05:41;;;;;;;16.98;10.07;;;;;;;;;;5065961;28;20056;-85
2023/07/21 03:08:12;;;;;;;20.58;10.43;;;;;;;;;;5065165;28;20032;-85
2023/07/21 03:10:39;;;;;;;20.05;10.90;;;;;;;;;;5070583;28;20036;-85
2023/07/21 03:13:13;;;;;;;18.63;10.20;;;;;;;;;;5085513;28;20048;-86
2023/07/21 03:15:43;;;;;;;17.85;9.93;;;;;;;;;;5066476;28;20116;-86
2023/07/21 03:18:09;;;;;;;18.35;9.07;;;;;;;;;;5066734;28;20297;-86
2023/07/21 03:20:36;;;;;;;18.52;9.68;;;;;;;;;;5064054;28;20119;-86
2023/07/21 03:23:07;;;;;;;17.45;8.68;;;;;;;;;;5065893;28;20313;-86
2023/07/21 03:25:34;;;;;;;17.67;8.70;;;;;;;;;;5082651;28;20321;-86
2023/07/21 03:28:02;;;;;;;24.33;8.80;;;;;;;;;;5082804;28;20148;-86
2023/07/21 03:30:30;;;;;;;12.88;7.72;;;;;;;;;;5065622;28;20048;-86
2023/07/21 03:33:00;;;;;;;16.75;8.98;;;;;;;;;;5080415;28;20044;-86
2023/07/21 03:35:38;;;;;;;13.52;7.75;;;;;;;;;;5088569;28;20036;-85
2023/07/21 03:40:58;;;;;;;10.75;6.50;;;;;;;;;;5094309;28;20048;-86
2023/07/21 03:47:06;;;;;;;12.25;6.63;;;;;;;;;;5096396;28;20074;-84
2023/07/21 03:53:11;;;;;;;11.30;6.72;;;;;;;;;;5109446;22;20086;-87
2023/07/21 03:55:51;;;;;;;11.40;7.47;;;;;;;;;;5080489;28;20059;-87
2023/07/21 03:58:34;;;;;;;10.18;6.70;;;;;;;;;;5095023;28;20032;-85
2023/07/21 04:01:32;;;;;;;11.60;7.10;;;;;;;;;;5095780;28;20229;-86
2023/07/21 04:04:15;;;;;;;14.90;6.25;;;;;;;;;;5091164;28;20044;-85
2023/07/21 04:07:01;;;;;;;11.15;7.07;;;;;;;;;;5094530;28;20036;-86
2023/07/21 04:09:43;;;;;;;13.77;7.45;;;;;;;;;;5094368;28;20041;-87
2023/07/21 04:12:46;;;;;;;13.07;6.03;;;;;;;;;;5080188;28;20020;-86
2023/07/21 04:15:26;;;;;;;9.35;6.20;;;;;;;;;;5080391;28;20032;-84
2023/07/21 04:29:07;;;;;;;12.63;5.80;;;;;;;;;;5077161;28;20053;-86
2023/07/21 04:31:54;;;;;;;9.40;5.47;;;;;;;;;;5070256;28;20055;-87
2023/07/21 04:34:59;;;;;;;7.68;5.93;;;;;;;;;;5057708;28;20105;-84
2023/07/21 04:38:01;;;;;;;9.45;5.57;;;;;;;;;;5057232;28;20041;-87
2023/07/21 04:40:46;;;;;;;17.25;5.88;;;;;;;;;;5056944;28;20072;-86
2023/07/21 04:43:30;;;;;;;11.15;5.60;;;;;;;;;;5041471;28;20132;-86
2023/07/21 04:46:13;;;;;;;9.70;5.43;;;;;;;;;;5056416;28;20053;-85
2023/07/21 04:48:57;;;;;;;10.27;5.32;;;;;;;;;;5040698;28;20071;-84
2023/07/21 04:52:02;;;;;;;9.55;5.25;;;;;;;;;;5055912;28;20041;-86
2023/07/21 04:54:53;;;;;;;9.65;5.60;;;;;;;;;;5040730;28;20041;-85
2023/07/21 04:57:50;;;;;;;9.20;5.28;;;;;;;;;;5056947;28;20029;-85
2023/07/21 05:00:41;;;;;;;9.75;5.05;;;;;;;;;;5041507;28;20049;-85
2023/07/21 05:03:25;;;;;;;10.07;5.57;;;;;;;;;;5040829;28;20033;-84
2023/07/21 05:06:13;;;;;;;9.70;6.03;;;;;;;;;;5042295;28;20037;-86
2023/07/21 05:09:19;;;;;;;11.93;5.57;;;;;;;;;;5057508;28;20025;-87
2023/07/21 05:12:24;;;;;;;9.27;5.65;;;;;;;;;;5239146;23;20411;-85
2023/07/21 05:15:15;;;;;;;8.95;5.00;;;;;;;;;;5073105;28;20080;-85
2023/07/21 05:18:14;;;;;;;11.57;4.78;;;;;;;;;;5074803;28;20541;-86
2023/07/21 05:21:00;;;;;;;7.25;5.60;;;;;;;;;;5074159;28;20055;-86
2023/07/21 05:23:46;;;;;;;8.80;5.53;;;;;;;;;;5074701;28;20052;-87
2023/07/21 05:26:30;;;;;;;14.18;5.45;;;;;;;;;;5074311;28;20060;-85
2023/07/21 05:29:15;;;;;;;11.65;5.78;;;;;;;;;;5073801;28;20174;-85
2023/07/21 05:32:01;;;;;;;10.60;5.32;;;;;;;;;;5057402;28;20045;-86
2023/07/21 05:34:42;;;;;;;7.85;5.10;;;;;;;;;;5072841;28;20440;-85
2023/07/21 05:37:37;;;;;;;6.82;4.88;;;;;;;;;;5187890;22;20121;-86
2023/07/21 05:40:21;;;;;;;12.43;5.47;;;;;;;;;;5089201;28;20048;-86
2023/07/21 05:43:06;;;;;;;5.80;4.70;;;;;;;;;;5090665;28;20068;-85
2023/07/21 05:45:49;;;;;;;6.87;4.20;;;;;;;;;;5079765;28;20204;-85
2023/07/21 05:48:33;;;;;;;10.70;4.57;;;;;;;;;;5089123;28;20499;-87
2023/07/21 05:51:14;;;;;;;8.32;4.28;;;;;;;;;;5091853;28;20258;-86
2023/07/21 05:53:59;;;;;;;7.85;4.30;;;;;;;;;;5088980;28;20040;-85
2023/07/21 05:56:43;;;;;;;6.45;3.88;;;;;;;;;;5090215;28;20020;-85
2023/07/21 05:59:26;;;;;;;4.65;3.72;;;;;;;;;;5093632;28;20080;-85
2023/07/21 06:02:22;;;;;;;6.88;3.95;;;;;;;;;;5093977;28;20109;-88
2023/07/21 06:05:08;;;;;;;7.47;3.95;;;;;;;;;;5093850;28;20037;-87
2023/07/21 06:07:49;;;;;;;;;;;;;;;;;;5093735;28;20044;-86
2023/07/21 06:10:30;;;;;;;7.47;4.28;;;;;;;;;;5093706;28;19916;-88
2023/07/21 06:13:11;;;;;;;6.90;3.67;;;;;;;;;;5090308;28;20031;-87
2023/07/21 06:15:58;;;;;;;8.20;3.65;;;;;;;;;;5092378;28;20056;-87
2023/07/21 06:18:38;;;;;;;4.95;3.88;;;;;;;;;;5091941;28;20059;-87
2023/07/21 06:21:20;;;;;;;8.98;4.25;;;;;;;;;;5088292;28;20092;-87
2023/07/21 06:24:01;;;;;;;5.65;3.67;;;;;;;;;;5091507;28;20100;-87
2023/07/21 06:26:42;;;;;;;5.18;3.88;;;;;;;;;;5091928;28;20032;-87
2023/07/21 06:29:22;;;;;;;6.78;3.20;;;;;;;;;;5089505;28;20114;-86
2023/07/21 06:32:10;;;;;;;5.90;3.58;;;;;;;;;;5092167;28;20112;-87
2023/07/21 06:34:53;;;;;;;4.57;3.63;;;;;;;;;;5090473;28;20037;-87
2023/07/21 06:37:38;;;;;;;4.28;3.30;;;;;;;;;;5091288;28;20071;-86
2023/07/21 06:40:19;;;;;;;4.80;2.90;;;;;;;;;;5092221;28;20055;-87
2023/07/21 06:43:02;;;;;;;3.38;2.60;;;;;;;;;;5091054;28;20071;-88
2023/07/21 06:45:43;;;;;;;4.28;2.92;;;;;;;;;;5092466;28;20079;-87
2023/07/21 06:48:24;;;;;;;4.60;3.00;;;;;;;;;;5088419;28;20042;-86
2023/07/21 06:51:08;;;;;;;8.00;2.85;;;;;;;;;;5089563;28;20036;-87
2023/07/21 06:53:59;;;;;;;4.97;2.38;;;;;;;;;;5089524;28;20544;-87
2023/07/21 06:56:39;;;;;;;3.38;2.70;;;;;;;;;;5087458;28;20142;-87
2023/07/21 06:59:15;;;;;;;5.60;2.45;;;;;;;;;;5085708;28;20108;-86
2023/07/21 07:01:57;;;;;;;9.13;2.25;;;;;;;;;;5086337;28;20044;-86
2023/07/21 07:04:39;;;;;;;5.97;2.15;;;;;;;;;;5081032;28;20213;-85
2023/07/21 07:07:28;;;;;;;3.30;1.67;;;;;;;;;;5088799;28;20068;-87
2023/07/21 07:10:10;;;;;;;4.88;1.90;;;;;;;;;;5087558;28;20082;-86
2023/07/21 07:12:51;;;;;;;2.20;1.90;;;;;;;;;;5089318;28;20412;-87
2023/07/21 07:15:37;;;;;;;3.58;2.40;;;;;;;;;;5086695;28;20168;-88
2023/07/21 07:18:42;;;;;;;3.80;1.95;;;;;;;;;;5091901;28;20043;-87
2023/07/21 07:21:25;;;;;;;5.00;2.10;;;;;;;;;;5086480;28;20044;-87
2023/07/21 07:24:06;;;;;;;2.90;1.63;;;;;;;;;;5090787;28;20038;-87
2023/07/21 07:26:47;;;;;;;2.38;1.58;;;;;;;;;;5091718;28;20036;-87
2023/07/21 07:29:35;;;;;;;5.97;1.80;;;;;;;;;;5092273;28;20065;-89
2023/07/21 07:32:20;;;;;;;2.28;1.50;;;;;;;;;;5090617;28;20040;-87
2023/07/21 07:35:01;;;;;;;2.88;1.45;;;;;;;;;;5087827;28;20040;-88
2023/07/21 07:37:45;;;;;;;4.20;1.52;;;;;;;;;;5181988;22;20048;-87
2023/07/21 07:40:47;;;;;;;5.95;1.60;;;;;;;;;;5161988;22;20056;-86
2023/07/21 07:43:37;;;;;;;2.30;1.02;;;;;;;;;;5069429;28;20076;-88
2023/07/21 07:46:20;;;;;;;5.07;1.67;;;;;;;;;;5070624;28;20102;-87
2023/07/21 07:49:04;;;;;;;3.90;1.90;;;;;;;;;;5068577;28;20024;-88
2023/07/21 07:52:00;;;;;;;3.45;1.90;;;;;;;;;;5071949;28;20085;-90
2023/07/21 07:54:53;;;;;;;3.33;1.80;;;;;;;;;;5191377;22;20111;-87
2023/07/21 07:57:34;;;;;;;6.32;1.92;;;;;;;;;;5095488;28;20086;-88
2023/07/21 08:00:27;;;;;;;3.40;1.30;;;;;;;;;;5097717;28;20040;-88
2023/07/21 08:06:01;;;;;;;3.53;1.15;;;;;;;;;;5314969;22;20060;-89
2023/07/21 08:08:42;;;;;;;4.28;1.70;;;;;;;;;;5094388;28;20032;-89
2023/07/21 08:11:26;;;;;;;3.58;1.70;;;;;;;;;;5077639;28;20108;-87
2023/07/21 08:14:30;;;;;;;2.40;1.60;;;;;;;;;;5077896;28;20099;-89
2023/07/21 08:17:48;;;;;;;2.65;1.45;;;;;;;;;;5094598;28;20032;-89
2023/07/21 08:20:31;;;;;;;6.43;2.00;;;;;;;;;;5089072;28;20052;-87
2023/07/21 08:23:18;;;;;;;5.65;1.73;;;;;;;;;;5078248;28;20028;-88
2023/07/21 08:25:58;;;;;;;3.90;1.60;;;;;;;;;;5079755;28;20028;-88
2023/07/21 08:28:47;;;;;;;3.28;1.70;;;;;;;;;;5091877;28;20125;-92
2023/07/21 08:31:37;;;;;;;2.92;1.63;;;;;;;;;;5093836;28;20052;-88
2023/07/21 08:34:25;;;;;;;5.57;1.70;;;;;;;;;;5057115;28;20052;-89
2023/07/21 08:37:08;;;;;;;4.50;1.17;;;;;;;;;;5092185;28;20048;-87
2023/07/21 08:40:08;;;;;;;4.13;1.67;;;;;;;;;;5091497;28;20071;-88
2023/07/21 08:43:06;;;;;;;3.08;1.58;;;;;;;;;;5076911;28;20077;-90
2023/07/21 08:45:56;;;;;;;4.88;1.60;;;;;;;;;;5091246;28;20036;-88
2023/07/21 08:48:39;;;;;;;3.85;1.60;;;;;;;;;;5090238;28;20033;-88
2023/07/21 08:51:19;;;;;;;3.22;1.17;;;;;;;;;;5090988;28;20466;-87
2023/07/21 08:54:01;;;;;;;5.60;1.80;;;;;;;;;;5091585;28;20044;-88
2023/07/21 08:56:57;;;;;;;4.13;1.90;;;;;;;;;;5094900;28;20210;-89
2023/07/21 08:59:52;;;;;;;4.07;1.70;;;;;;;;;;5079869;28;20317;-89
2023/07/21 09:03:03;;;;;;;4.43;1.58;;;;;;;;;;5079791;28;20032;-89
2023/07/21 09:05:46;;;;;;;2.50;1.10;;;;;;;;;;5093537;28;20056;-88
2023/07/21 09:08:35;;;;;;;2.58;1.13;;;;;;;;;;5078446;28;20040;-89
2023/07/21 09:11:17;;;;;;;3.00;1.38;;;;;;;;;;5093816;28;20094;-87
2023/07/21 09:14:01;;;;;;;3.60;1.30;;;;;;;;;;5076564;28;20045;-89
2023/07/21 09:16:48;;;;;;;2.95;1.52;;;;;;;;;;5092414;28;20040;-89
2023/07/21 09:23:16;;;;;;;5.57;1.90;;;;;;;;;;5095473;28;20039;-90
2023/07/21 09:26:10;;;;;;;3.80;1.67;;;;;;;;;;5075658;28;20072;-89
2023/07/21 09:28:58;;;;;;;3.78;1.60;;;;;;;;;;5095245;28;20054;-89
2023/07/21 09:34:54;;;;;;;1.60;1.13;;;;;;;;;;5053856;28;20053;-89
2023/07/21 09:38:03;;;;;;;4.50;1.33;;;;;;;;;;5477101;22;20240;-89
2023/07/21 09:40:45;;;;;;;2.25;1.23;;;;;;;;;;5058149;28;20056;-88
2023/07/21 09:43:27;;;;;;;5.03;1.55;;;;;;;;;;5056554;28;20040;-88
2023/07/21 09:46:13;;;;;;;2.63;1.10;;;;;;;;;;5058482;28;20152;-87
2023/07/21 09:48:54;;;;;;;1.80;1.20;;;;;;;;;;5067985;28;20092;-88
2023/07/21 09:51:39;;;;;;;2.45;1.10;;;;;;;;;;5073199;28;20096;-89
2023/07/21 09:54:25;;;;;;;2.92;1.70;;;;;;;;;;5058405;28;20037;-89
2023/07/21 10:00:29;;;;;;;1.65;1.05;;;;;;;;;;4973589;28;20038;-88
2023/07/21 10:03:18;;;;;;;1.67;0.73;;;;;;;;;;5391865;22;20023;-88
2023/07/21 10:06:24;;;;;;;4.65;1.38;;;;;;;;;;5265539;22;20052;-89
2023/07/21 10:09:09;;;;;;;2.33;1.08;;;;;;;;;;5093616;28;20052;-88
2023/07/21 10:12:01;;;;;;;1.60;0.82;;;;;;;;;;5093923;28;20058;-89
2023/07/21 10:14:44;;;;;;;1.77;0.82;;;;;;;;;;5091116;28;20036;-89
2023/07/21 10:17:42;;;;;;;2.53;0.95;;;;;;;;;;5075976;28;20032;-88
2023/07/21 10:20:40;;;;;;;1.90;0.82;;;;;;;;;;5078355;28;20084;-90
2023/07/21 10:24:02;;;;;;;3.58;1.17;;;;;;;;;;5093614;28;20095;-89
2023/07/21 10:26:46;;;;;;;1.35;0.57;;;;;;;;;;5076635;28;20071;-89
2023/07/21 10:29:27;;;;;;;1.52;0.90;;;;;;;;;;5078038;28;20039;-89
2023/07/21 10:32:21;;;;;;;2.33;1.00;;;;;;;;;;5092536;28;20051;-89
2023/07/21 10:35:20;;;;;;;2.72;1.00;;;;;;;;;;5076531;28;20104;-89
2023/07/21 10:38:14;;;;;;;2.60;0.70;;;;;;;;;;5071621;28;20047;-89
2023/07/21 10:40:58;;;;;;;2.17;0.70;;;;;;;;;;5090188;28;20079;-88
2023/07/21 10:43:52;;;;;;;6.45;0.90;;;;;;;;;;5076219;28;20032;-89
2023/07/21 10:46:42;;;;;;;3.00;0.88;;;;;;;;;;5091463;28;20110;-89
2023/07/21 10:51:59;;;;;;;8.48;1.90;;;;;;;;;;4172713;26;20076;-89
2023/07/21 10:54:44;;;;;;;1.45;0.65;;;;;;;;;;5070545;28;20032;-90
2023/07/21 10:57:56;;;;;;;1.60;0.60;;;;;;;;;;5070806;28;20045;-89
2023/07/21 11:01:10;;;;;;;2.93;0.70;;;;;;;;;;5068525;28;20041;-92
2023/07/21 11:10:10;;;;;;;1.63;0.80;;;;;;;;;;5568941;22;20104;-89
2023/07/21 11:12:57;;;;;;;0.93;0.80;;;;;;;;;;5091036;28;20074;-88
2023/07/21 11:15:38;;;;;;;2.92;0.63;;;;;;;;;;5093829;28;20102;-91
2023/07/21 11:18:28;;;;;;;3.65;0.63;;;;;;;;;;5073935;28;20032;-89
2023/07/21 11:29:04;;;;;;;2.97;0.75;;;;;;;;;;5142236;22;20122;-90
2023/07/21 11:37:44;;;;;;;3.70;1.05;;;;;;;;;;5093976;22;20060;-89
2023/07/21 11:40:35;;;;;;;2.85;0.90;;;;;;;;;;5085194;28;20045;-89
2023/07/21 11:46:09;;;;;;;0.90;0.43;;;;;;;;;;4165960;22;20045;-90
2023/07/21 11:51:45;;;;;;;2.97;0.80;;;;;;;;;;5182024;22;20043;-89
2023/07/21 11:54:33;;;;;;;1.10;0.75;;;;;;;;;;5075399;28;20151;-88
2023/07/21 11:57:14;;;;;;;2.17;0.85;;;;;;;;;;5076863;28;20048;-89
2023/07/21 12:00:13;;;;;;;1.77;0.60;;;;;;;;;;5173378;22;20057;-89
2023/07/21 12:03:01;;;;;;;2.38;0.55;;;;;;;;;;5072634;28;20052;-89
2023/07/21 12:06:01;;;;;;;1.63;0.82;;;;;;;;;;5065359;28;20068;-89
2023/07/21 12:13:53;;;;;;;3.03;0.80;;;;;;;;;;5091911;28;20079;-88
2023/07/21 12:16:55;;;;;;;1.63;0.60;;;;;;;;;;5092560;28;20036;-88
2023/07/21 12:19:36;;;;;;;1.25;0.60;;;;;;;;;;5090294;28;20039;-89
2023/07/21 12:22:42;;;;;;;3.78;0.88;;;;;;;;;;5122049;22;20062;-89
2023/07/21 12:25:53;;;;;;;2.15;0.77;;;;;;;;;;5094197;28;20085;-90
2023/07/21 12:31:15;;;;;;;0.65;0.40;;;;;;;;;;5179161;22;20097;-89
2023/07/21 12:33:59;;;;;;;1.55;0.50;;;;;;;;;;5091311;28;20244;-90
2023/07/21 12:37:05;;;;;;;0.95;0.60;;;;;;;;;;5090174;28;20084;-90
2023/07/21 12:39:51;;;;;;;0.95;0.47;;;;;;;;;;5093774;28;20040;-89
2023/07/21 12:46:05;;;;;;;2.13;0.50;;;;;;;;;;5095454;28;20054;-90
2023/07/21 12:48:58;;;;;;;1.00;0.50;;;;;;;;;;5093968;28;20028;-90
2023/07/21 12:51:40;;;;;;;1.85;0.85;;;;;;;;;;5093026;28;20028;-88
2023/07/21 12:54:43;;;;;;;1.83;0.57;;;;;;;;;;5094393;28;20032;-89
2023/07/21 12:58:19;;;;;;;1.20;0.80;;;;;;;;;;5095385;28;20072;-89
2023/07/21 13:00:48;;;;;;;2.80;0.70;;;;;;;;;;5091115;28;20036;-90
2023/07/21 13:03:32;;;;;;;0.70;0.70;;;;;;;;;;5095008;28;20048;-90
2023/07/21 13:06:29;;;;;;;0.47;0.45;;;;;;;;;;5092730;28;20033;-89
2023/07/21 13:09:11;;;;;;;2.40;0.45;;;;;;;;;;5094572;28;20051;-89
2023/07/21 13:12:02;;;;;;;0.93;0.60;;;;;;;;;;5092728;28;20094;-89
2023/07/21 13:14:58;;;;;;;1.17;0.50;;;;;;;;;;5095969;28;20082;-89
2023/07/21 13:17:45;;;;;;;1.83;0.63;;;;;;;;;;5095610;28;20097;-89
2023/07/21 13:20:28;;;;;;;0.82;0.40;;;;;;;;;;5095489;28;20115;-90
2023/07/21 13:23:09;;;;;;;1.58;0.52;;;;;;;;;;5095523;28;20059;-89
2023/07/21 13:25:59;;;;;;;1.42;0.73;;;;;;;;;;5095463;28;20051;-88
2023/07/21 13:29:00;;;;;;;3.70;1.00;;;;;;;;;;5094430;28;20098;-90
2023/07/21 13:43:48;;;;;;;1.05;0.57;;;;;;;;;;3656957;22;20290;-90
2023/07/21 13:46:30;;;;;;;0.80;0.50;;;;;;;;;;5118213;22;20099;-88
2023/07/21 13:49:11;;;;;;;2.75;0.50;;;;;;;;;;5074159;28;20067;-89
2023/07/21 13:51:55;;;;;;;1.10;0.70;;;;;;;;;;5059633;28;20024;-89
2023/07/21 13:54:40;;;;;;;1.98;0.60;;;;;;;;;;5059325;28;20048;-89
2023/07/21 13:57:36;;;;;;;3.55;0.80;;;;;;;;;;5109389;22;20044;-89
2023/07/21 14:00:29;;;;;;;0.57;0.50;;;;;;;;;;5094201;28;20056;-91
2023/07/21 14:03:29;;;;;;;2.20;0.60;;;;;;;;;;5095273;28;20039;-89
2023/07/21 14:06:10;;;;;;;;;;;;;;;;;;5095163;28;20041;-89
2023/07/21 14:09:17;;;;;;;0.60;0.40;;;;;;;;;;5095221;28;19924;-90
2023/07/21 14:11:57;;;;;;;;;;;;;;;;;;5096218;28;20025;-89
2023/07/21 14:15:13;;;;;;;2.25;0.90;;;;;;;;;;5097018;28;19908;-90
2023/07/21 14:17:56;;;;;;;1.13;0.47;;;;;;;;;;5078328;22;20071;-89
2023/07/21 14:20:43;;;;;;;1.48;0.70;;;;;;;;;;5074652;28;20122;-89
2023/07/21 14:23:25;;;;;;;4.53;0.70;;;;;;;;;;5071593;22;20048;-89
2023/07/21 14:26:06;;;;;;;1.27;0.60;;;;;;;;;;5058701;28;20100;-89
2023/07/21 14:38:35;;;;;;;3.30;0.82;;;;;;;;;;5324026;22;20064;-89
2023/07/21 14:41:23;;;;;;;3.35;0.47;;;;;;;;;;5091954;28;20040;-89
2023/07/21 14:44:25;;;;;;;2.47;0.82;;;;;;;;;;5075795;28;20083;-90
2023/07/21 14:47:23;;;;;;;3.15;0.70;;;;;;;;;;5095000;28;20040;-90
2023/07/21 14:50:21;;;;;;;1.42;0.80;;;;;;;;;;5073957;28;20030;-89
2023/07/21 14:53:31;;;;;;;1.38;0.75;;;;;;;;;;5074238;28;20025;-90
2023/07/21 14:56:14;;;;;;;0.88;0.50;;;;;;;;;;5074105;28;20086;-89
2023/07/21 14:58:57;;;;;;;1.17;0.50;;;;;;;;;;5075514;28;20089;-89
2023/07/21 15:01:57;;;;;;;0.70;0.50;;;;;;;;;;5064649;28;20037;-90
2023/07/21 15:04:55;;;;;;;1.55;0.75;;;;;;;;;;5116506;22;20109;-89
2023/07/21 15:07:42;;;;;;;1.38;0.60;;;;;;;;;;5075718;28;20031;-90
2023/07/21 15:13:03;;;;;;;0.98;0.70;;;;;;;;;;5759923;22;20037;-89
2023/07/21 15:18:29;;;;;;;7.53;0.52;;;;;;;;;;5095009;22;20036;-93
2023/07/21 15:21:10;;;;;;;5.57;1.08;;;;;;;;;;5664971;22;20056;-90
2023/07/21 15:23:54;;;;;;;2.30;0.98;;;;;;;;;;5247169;22;20038;-90
2023/07/21 15:27:00;;;;;;;7.65;1.67;;;;;;;;;;5077283;28;20056;-90
2023/07/21 15:33:37;;;;;;;4.35;1.98;;;;;;;;;;5094312;28;20034;-89
2023/07/21 15:36:20;;;;;;;2.90;1.00;;;;;;;;;;5093741;28;20074;-89
2023/07/21 15:39:04;;;;;;;4.63;1.35;;;;;;;;;;5124776;22;20032;-89
2023/07/21 15:41:46;;;;;;;2.38;1.10;;;;;;;;;;5094545;28;20044;-90
2023/07/21 15:44:28;;;;;;;1.70;0.82;;;;;;;;;;5107626;22;20052;-91
2023/07/21 15:47:09;;;;;;;2.50;1.10;;;;;;;;;;5094222;28;20037;-90
2023/07/21 15:49:51;;;;;;;4.20;1.35;;;;;;;;;;5094182;28;20037;-90
2023/07/21 15:52:40;;;;;;;6.90;1.25;;;;;;;;;;5226717;22;20140;-89
2023/07/21 15:55:21;;;;;;;1.42;1.15;;;;;;;;;;5504471;22;20023;-90
2023/07/21 16:23:16;;;;;;;10.32;2.95;;;;;;;;;;5113531;22;20048;-88
2023/07/21 16:25:58;;;;;;;6.60;2.30;;;;;;;;;;5083111;28;20037;-88
2023/07/21 16:42:11;;;;;;;5.00;1.63;;;;;;;;;;5099277;28;20082;-89
2023/07/21 16:44:54;;;;;;;7.78;1.75;;;;;;;;;;5082858;28;20036;-89
2023/07/21 16:47:40;;;;;;;2.67;1.55;;;;;;;;;;5098962;28;20036;-89
2023/07/21 16:53:45;;;;;;;4.75;1.73;;;;;;;;;;5099389;28;20024;-89
2023/07/21 16:56:25;;;;;;;8.85;3.70;;;;;;;;;;5083413;28;20052;-90
2023/07/21 16:59:07;;;;;;;6.70;3.85;;;;;;;;;;5098777;28;20033;-89
2023/07/21 17:01:48;;;;;;;5.95;3.22;;;;;;;;;;5097427;28;20048;-89
2023/07/21 17:04:31;;;;;;;3.53;1.80;;;;;;;;;;5096521;28;20035;-89
2023/07/21 17:07:16;;;;;;;7.85;2.58;;;;;;;;;;5080446;28;20259;-89
2023/07/21 17:09:57;;;;;;;3.83;2.38;;;;;;;;;;5081100;28;20024;-88
2023/07/21 17:12:37;;;;;;;5.00;1.60;;;;;;;;;;5095689;28;20029;-88
2023/07/21 17:15:19;;;;;;;4.03;1.58;;;;;;;;;;5095833;28;20060;-89
2023/07/21 17:18:06;;;;;;;3.53;1.77;;;;;;;;;;5081149;28;20107;-88
2023/07/21 17:20:50;;;;;;;3.05;1.70;;;;;;;;;;5095634;28;20028;-88
2023/07/21 17:23:31;;;;;;;4.82;1.58;;;;;;;;;;5080651;28;20032;-88
2023/07/21 17:26:21;;;;;;;1.90;1.58;;;;;;;;;;5094800;28;20044;-88
2023/07/21 17:29:16;;;;;;;2.08;1.20;;;;;;;;;;5081472;28;20129;-88
2023/07/21 17:31:57;;;;;;;3.28;1.45;;;;;;;;;;5557843;22;20220;-89
2023/07/21 17:34:39;;;;;;;3.35;1.70;;;;;;;;;;5077986;28;20037;-89
2023/07/21 17:42:58;;;;;;;3.42;1.55;;;;;;;;;;6073478;22;20792;-90
2023/07/21 17:45:43;;;;;;;3.85;1.98;;;;;;;;;;5065216;28;20075;-89
2023/07/21 17:48:42;;;;;;;5.07;1.88;;;;;;;;;;5080288;28;20031;-89
2023/07/21 17:51:24;;;;;;;4.38;1.90;;;;;;;;;;5095602;28;20076;-89
2023/07/21 18:00:17;;;;;;;7.30;2.47;;;;;;;;;;4775884;22;15130865;-88
2023/07/21 18:03:01;;;;;;;3.50;2.00;;;;;;;;;;5080996;28;20098;-88
2023/07/21 18:05:46;;;;;;;4.35;2.10;;;;;;;;;;5082540;28;20021;-90
2023/07/21 18:09:08;;;;;;;4.70;1.77;;;;;;;;;;5097556;28;20064;-90
2023/07/21 18:11:50;;;;;;;4.22;1.98;;;;;;;;;;5189689;22;20036;-88
2023/07/21 18:14:34;;;;;;;3.22;1.45;;;;;;;;;;5519669;22;20085;-88
2023/07/21 18:17:20;;;;;;;2.20;1.45;;;;;;;;;;5081847;28;20119;-90
2023/07/21 18:23:25;;;;;;;3.20;1.70;;;;;;;;;;5097855;28;20052;-89
2023/07/21 18:32:26;;;;;;;5.75;2.03;;;;;;;;;;525846;26;20295;-88
2023/07/21 18:35:08;;;;;;;4.45;2.55;;;;;;;;;;5055550;28;20048;-89
2023/07/21 18:37:55;;;;;;;5.80;2.20;;;;;;;;;;5056265;28;20057;-90
2023/07/21 18:40:43;;;;;;;2.60;1.83;;;;;;;;;;5028842;28;20056;-88
2023/07/21 18:43:28;;;;;;;3.78;1.90;;;;;;;;;;5055800;28;20028;-89
2023/07/21 18:46:32;;;;;;;4.30;2.20;;;;;;;;;;5056199;28;20029;-89
2023/07/21 18:49:19;;;;;;;8.05;2.25;;;;;;;;;;5056551;28;20088;-89
2023/07/21 18:52:09;;;;;;;5.60;2.15;;;;;;;;;;5055515;28;20052;-87
2023/07/21 18:54:51;;;;;;;3.70;2.25;;;;;;;;;;5041038;28;20047;-89
2023/07/21 18:57:36;;;;;;;2.83;1.83;;;;;;;;;;5040200;28;20033;-89
2023/07/21 19:00:16;;;;;;;3.83;2.15;;;;;;;;;;5248509;23;20037;-88
2023/07/21 19:02:59;;;;;;;3.30;1.95;;;;;;;;;;5060997;28;20096;-88
2023/07/21 19:05:40;;;;;;;5.05;2.30;;;;;;;;;;5061262;28;20017;-90